sensor_id;sensor_type;location;lat;lon;timestamp;P1;durP1;ratioP1;P2;durP2;ratioP2
63444;SDS011;49573;47.682;9.170;2022-10-31T00:01:48;32.90;;;16.27;;
63444;SDS011;49573;47.682;9.170;2022-10-31T00:04:35;26.58;;;15.80;;
63444;SDS011;49573;47.682;9.170;2022-10-31T00:07:21;25.33;;;15.30;;
63444;SDS011;49573;47.682;9.170;2022-10-31T00:10:07;27.02;;;14.45;;
63444;SDS011;49573;47.682;9.170;2022-10-31T00:15:41;29.15;;;15.07;;
63444;SDS011;49573;47.682;9.170;2022-10-31T00:18:27;28.30;;;15.82;;
63444;SDS011;49573;47.682;9.170;2022-10-31T00:21:14;27.25;;;14.10;;
63444;SDS011;49573;47.682;9.170;2022-10-31T00:24:00;33.03;;;15.73;;
63444;SDS011;49573;47.682;9.170;2022-10-31T00:26:46;21.20;;;12.75;;
63444;SDS011;49573;47.682;9.170;2022-10-31T00:29:32;40.95;;;16.08;;
63444;SDS011;49573;47.682;9.170;2022-10-31T00:32:20;35.47;;;14.25;;
63444;SDS011;49573;47.682;9.170;2022-10-31T00:35:06;26.75;;;14.88;;
63444;SDS011;49573;47.682;9.170;2022-10-31T00:37:52;29.50;;;14.55;;
63444;SDS011;49573;47.682;9.170;2022-10-31T00:40:38;27.13;;;14.98;;
63444;SDS011;49573;47.682;9.170;2022-10-31T00:43:24;36.38;;;15.35;;
63444;SDS011;49573;47.682;9.170;2022-10-31T00:46:10;126.83;;;18.93;;
63444;SDS011;49573;47.682;9.170;2022-10-31T00:48:59;47.22;;;16.48;;
63444;SDS011;49573;47.682;9.170;2022-10-31T00:51:45;40.08;;;14.05;;
63444;SDS011;49573;47.682;9.170;2022-10-31T00:54:31;48.08;;;13.18;;
63444;SDS011;49573;47.682;9.170;2022-10-31T00:57:17;41.97;;;12.80;;
63444;SDS011;49573;47.682;9.170;2022-10-31T01:00:03;62.50;;;13.80;;
63444;SDS011;49573;47.682;9.170;2022-10-31T01:02:50;60.20;;;13.10;;
63444;SDS011;49573;47.682;9.170;2022-10-31T01:05:37;64.57;;;12.95;;
63444;SDS011;49573;47.682;9.170;2022-10-31T01:08:23;56.05;;;14.13;;
63444;SDS011;49573;47.682;9.170;2022-10-31T01:11:10;70.40;;;15.40;;
63444;SDS011;49573;47.682;9.170;2022-10-31T01:13:58;57.47;;;13.98;;
63444;SDS011;49573;47.682;9.170;2022-10-31T01:16:44;34.90;;;14.50;;
63444;SDS011;49573;47.682;9.170;2022-10-31T01:19:30;39.70;;;12.95;;
63444;SDS011;49573;47.682;9.170;2022-10-31T01:22:18;27.45;;;13.32;;
63444;SDS011;49573;47.682;9.170;2022-10-31T01:25:04;42.40;;;15.38;;
63444;SDS011;49573;47.682;9.170;2022-10-31T01:27:51;35.80;;;12.50;;
63444;SDS011;49573;47.682;9.170;2022-10-31T01:30:37;26.35;;;12.50;;
63444;SDS011;49573;47.682;9.170;2022-10-31T01:33:23;15.38;;;11.02;;
63444;SDS011;49573;47.682;9.170;2022-10-31T01:36:14;24.30;;;10.98;;
63444;SDS011;49573;47.682;9.170;2022-10-31T01:39:04;11.85;;;9.60;;
63444;SDS011;49573;47.682;9.170;2022-10-31T01:41:52;11.00;;;9.25;;
63444;SDS011;49573;47.682;9.170;2022-10-31T01:44:50;20.50;;;10.82;;
63444;SDS011;49573;47.682;9.170;2022-10-31T01:47:39;24.58;;;9.93;;
63444;SDS011;49573;47.682;9.170;2022-10-31T01:50:30;28.98;;;10.30;;
63444;SDS011;49573;47.682;9.170;2022-10-31T01:53:20;30.20;;;9.88;;
63444;SDS011;49573;47.682;9.170;2022-10-31T01:58:55;18.15;;;9.38;;
63444;SDS011;49573;47.682;9.170;2022-10-31T02:01:42;20.58;;;9.68;;
63444;SDS011;49573;47.682;9.170;2022-10-31T02:04:28;52.95;;;10.88;;
63444;SDS011;49573;47.682;9.170;2022-10-31T02:07:16;16.97;;;10.07;;
63444;SDS011;49573;47.682;9.170;2022-10-31T02:10:06;18.10;;;9.98;;
63444;SDS011;49573;47.682;9.170;2022-10-31T02:12:55;57.08;;;11.50;;
63444;SDS011;49573;47.682;9.170;2022-10-31T02:15:44;26.25;;;10.23;;
63444;SDS011;49573;47.682;9.170;2022-10-31T02:18:32;14.85;;;10.27;;
63444;SDS011;49573;47.682;9.170;2022-10-31T02:21:19;17.07;;;10.87;;
63444;SDS011;49573;47.682;9.170;2022-10-31T02:24:16;36.33;;;10.73;;
63444;SDS011;49573;47.682;9.170;2022-10-31T02:27:24;43.83;;;11.65;;
63444;SDS011;49573;47.682;9.170;2022-10-31T02:30:32;66.95;;;12.70;;
63444;SDS011;49573;47.682;9.170;2022-10-31T02:33:25;74.85;;;14.95;;
63444;SDS011;49573;47.682;9.170;2022-10-31T02:36:21;48.65;;;12.23;;
63444;SDS011;49573;47.682;9.170;2022-10-31T02:39:15;71.82;;;15.38;;
63444;SDS011;49573;47.682;9.170;2022-10-31T02:42:08;68.25;;;16.10;;
63444;SDS011;49573;47.682;9.170;2022-10-31T02:45:00;79.18;;;16.42;;
63444;SDS011;49573;47.682;9.170;2022-10-31T02:47:51;36.92;;;12.73;;
63444;SDS011;49573;47.682;9.170;2022-10-31T02:50:42;40.47;;;13.45;;
63444;SDS011;49573;47.682;9.170;2022-10-31T02:53:34;113.40;;;16.02;;
63444;SDS011;49573;47.682;9.170;2022-10-31T02:59:07;79.40;;;11.65;;
63444;SDS011;49573;47.682;9.170;2022-10-31T03:02:00;51.85;;;11.00;;
63444;SDS011;49573;47.682;9.170;2022-10-31T03:08:25;48.10;;;12.15;;
63444;SDS011;49573;47.682;9.170;2022-10-31T03:11:17;48.83;;;14.73;;
63444;SDS011;49573;47.682;9.170;2022-10-31T03:14:09;21.67;;;12.07;;
63444;SDS011;49573;47.682;9.170;2022-10-31T03:16:58;25.17;;;12.23;;
63444;SDS011;49573;47.682;9.170;2022-10-31T03:19:47;15.70;;;10.07;;
63444;SDS011;49573;47.682;9.170;2022-10-31T03:22:36;42.72;;;10.95;;
63444;SDS011;49573;47.682;9.170;2022-10-31T03:25:27;62.53;;;12.35;;
63444;SDS011;49573;47.682;9.170;2022-10-31T03:28:15;12.27;;;9.50;;
63444;SDS011;49573;47.682;9.170;2022-10-31T03:31:04;16.23;;;10.23;;
63444;SDS011;49573;47.682;9.170;2022-10-31T03:33:52;15.95;;;9.45;;
63444;SDS011;49573;47.682;9.170;2022-10-31T03:36:41;12.70;;;9.05;;
63444;SDS011;49573;47.682;9.170;2022-10-31T03:39:29;21.48;;;10.73;;
63444;SDS011;49573;47.682;9.170;2022-10-31T03:45:07;77.32;;;11.70;;
63444;SDS011;49573;47.682;9.170;2022-10-31T03:47:58;24.13;;;11.20;;
63444;SDS011;49573;47.682;9.170;2022-10-31T03:50:47;41.10;;;11.45;;
63444;SDS011;49573;47.682;9.170;2022-10-31T03:53:39;37.55;;;11.13;;
63444;SDS011;49573;47.682;9.170;2022-10-31T03:56:32;20.33;;;10.60;;
63444;SDS011;49573;47.682;9.170;2022-10-31T03:59:22;49.03;;;11.70;;
63444;SDS011;49573;47.682;9.170;2022-10-31T04:02:14;20.75;;;11.18;;
63444;SDS011;49573;47.682;9.170;2022-10-31T04:05:04;13.00;;;10.38;;
63444;SDS011;49573;47.682;9.170;2022-10-31T04:07:52;16.08;;;10.40;;
63444;SDS011;49573;47.682;9.170;2022-10-31T04:10:41;52.15;;;10.00;;
63444;SDS011;49573;47.682;9.170;2022-10-31T04:13:31;15.43;;;9.50;;
63444;SDS011;49573;47.682;9.170;2022-10-31T04:16:22;26.75;;;10.68;;
63444;SDS011;49573;47.682;9.170;2022-10-31T04:19:10;12.30;;;9.27;;
63444;SDS011;49573;47.682;9.170;2022-10-31T04:21:56;17.08;;;10.13;;
63444;SDS011;49573;47.682;9.170;2022-10-31T04:24:42;11.90;;;9.30;;
63444;SDS011;49573;47.682;9.170;2022-10-31T04:27:28;14.88;;;10.55;;
63444;SDS011;49573;47.682;9.170;2022-10-31T04:30:15;13.77;;;9.63;;
63444;SDS011;49573;47.682;9.170;2022-10-31T04:33:02;16.23;;;10.47;;
63444;SDS011;49573;47.682;9.170;2022-10-31T04:35:48;26.98;;;11.70;;
63444;SDS011;49573;47.682;9.170;2022-10-31T04:38:34;23.80;;;10.95;;
63444;SDS011;49573;47.682;9.170;2022-10-31T04:41:20;46.08;;;11.45;;
63444;SDS011;49573;47.682;9.170;2022-10-31T04:44:06;19.45;;;11.98;;
63444;SDS011;49573;47.682;9.170;2022-10-31T04:46:52;46.40;;;12.57;;
63444;SDS011;49573;47.682;9.170;2022-10-31T04:49:39;31.70;;;11.68;;
63444;SDS011;49573;47.682;9.170;2022-10-31T04:52:26;17.83;;;11.07;;
63444;SDS011;49573;47.682;9.170;2022-10-31T04:55:12;14.55;;;11.27;;
63444;SDS011;49573;47.682;9.170;2022-10-31T04:57:59;25.48;;;10.93;;
63444;SDS011;49573;47.682;9.170;2022-10-31T05:00:45;49.50;;;12.40;;
63444;SDS011;49573;47.682;9.170;2022-10-31T05:03:31;32.75;;;12.00;;
63444;SDS011;49573;47.682;9.170;2022-10-31T05:06:18;21.02;;;11.85;;
63444;SDS011;49573;47.682;9.170;2022-10-31T05:09:05;15.40;;;10.70;;
63444;SDS011;49573;47.682;9.170;2022-10-31T05:11:51;15.37;;;10.67;;
63444;SDS011;49573;47.682;9.170;2022-10-31T05:14:37;19.33;;;11.02;;
63444;SDS011;49573;47.682;9.170;2022-10-31T05:17:23;40.78;;;10.25;;
63444;SDS011;49573;47.682;9.170;2022-10-31T05:20:09;40.10;;;11.20;;
63444;SDS011;49573;47.682;9.170;2022-10-31T05:22:57;35.70;;;11.77;;
63444;SDS011;49573;47.682;9.170;2022-10-31T05:25:44;16.05;;;10.07;;
63444;SDS011;49573;47.682;9.170;2022-10-31T05:28:30;18.15;;;10.77;;
63444;SDS011;49573;47.682;9.170;2022-10-31T05:31:16;26.80;;;10.73;;
63444;SDS011;49573;47.682;9.170;2022-10-31T05:34:02;14.07;;;9.98;;
63444;SDS011;49573;47.682;9.170;2022-10-31T05:36:48;23.03;;;10.40;;
63444;SDS011;49573;47.682;9.170;2022-10-31T05:39:36;14.82;;;9.82;;
63444;SDS011;49573;47.682;9.170;2022-10-31T05:42:22;20.08;;;10.95;;
63444;SDS011;49573;47.682;9.170;2022-10-31T05:45:08;15.43;;;10.68;;
63444;SDS011;49573;47.682;9.170;2022-10-31T05:47:56;13.60;;;10.30;;
63444;SDS011;49573;47.682;9.170;2022-10-31T05:50:43;24.63;;;11.75;;
63444;SDS011;49573;47.682;9.170;2022-10-31T05:53:29;33.90;;;11.63;;
63444;SDS011;49573;47.682;9.170;2022-10-31T05:56:17;33.15;;;11.07;;
63444;SDS011;49573;47.682;9.170;2022-10-31T05:59:03;16.70;;;11.23;;
63444;SDS011;49573;47.682;9.170;2022-10-31T06:01:49;33.08;;;11.55;;
63444;SDS011;49573;47.682;9.170;2022-10-31T06:04:35;18.67;;;10.75;;
63444;SDS011;49573;47.682;9.170;2022-10-31T06:07:21;13.27;;;9.82;;
63444;SDS011;49573;47.682;9.170;2022-10-31T06:10:07;17.00;;;10.75;;
63444;SDS011;49573;47.682;9.170;2022-10-31T06:12:55;12.35;;;9.27;;
63444;SDS011;49573;47.682;9.170;2022-10-31T06:15:41;11.98;;;9.27;;
63444;SDS011;49573;47.682;9.170;2022-10-31T06:18:28;12.68;;;9.43;;
63444;SDS011;49573;47.682;9.170;2022-10-31T06:21:14;30.10;;;9.85;;
63444;SDS011;49573;47.682;9.170;2022-10-31T06:24:00;15.35;;;9.63;;
63444;SDS011;49573;47.682;9.170;2022-10-31T06:26:46;26.50;;;10.38;;
63444;SDS011;49573;47.682;9.170;2022-10-31T06:29:33;36.33;;;10.20;;
63444;SDS011;49573;47.682;9.170;2022-10-31T06:32:19;18.92;;;9.68;;
63444;SDS011;49573;47.682;9.170;2022-10-31T06:35:05;13.15;;;9.93;;
63444;SDS011;49573;47.682;9.170;2022-10-31T06:37:52;15.35;;;10.43;;
63444;SDS011;49573;47.682;9.170;2022-10-31T06:40:39;28.95;;;11.43;;
63444;SDS011;49573;47.682;9.170;2022-10-31T06:43:25;14.32;;;10.10;;
63444;SDS011;49573;47.682;9.170;2022-10-31T06:46:12;15.68;;;10.07;;
63444;SDS011;49573;47.682;9.170;2022-10-31T06:48:58;13.10;;;9.15;;
63444;SDS011;49573;47.682;9.170;2022-10-31T06:51:46;12.70;;;8.97;;
63444;SDS011;49573;47.682;9.170;2022-10-31T06:54:33;19.60;;;9.35;;
63444;SDS011;49573;47.682;9.170;2022-10-31T06:57:19;10.95;;;8.80;;
63444;SDS011;49573;47.682;9.170;2022-10-31T07:00:05;11.85;;;9.25;;
63444;SDS011;49573;47.682;9.170;2022-10-31T07:02:54;11.00;;;8.55;;
63444;SDS011;49573;47.682;9.170;2022-10-31T07:05:41;14.70;;;10.23;;
63444;SDS011;49573;47.682;9.170;2022-10-31T07:08:27;16.25;;;10.80;;
63444;SDS011;49573;47.682;9.170;2022-10-31T07:11:13;15.57;;;11.10;;
63444;SDS011;49573;47.682;9.170;2022-10-31T07:13:59;15.48;;;10.98;;
63444;SDS011;49573;47.682;9.170;2022-10-31T07:16:47;14.57;;;11.00;;
63444;SDS011;49573;47.682;9.170;2022-10-31T07:19:35;15.50;;;10.93;;
63444;SDS011;49573;47.682;9.170;2022-10-31T07:22:21;14.38;;;10.25;;
63444;SDS011;49573;47.682;9.170;2022-10-31T07:25:07;15.07;;;10.32;;
63444;SDS011;49573;47.682;9.170;2022-10-31T07:27:54;14.68;;;10.07;;
63444;SDS011;49573;47.682;9.170;2022-10-31T07:30:41;15.98;;;10.25;;
63444;SDS011;49573;47.682;9.170;2022-10-31T07:33:27;13.65;;;10.02;;
63444;SDS011;49573;47.682;9.170;2022-10-31T07:36:14;14.07;;;10.15;;
63444;SDS011;49573;47.682;9.170;2022-10-31T07:39:01;12.02;;;9.32;;
63444;SDS011;49573;47.682;9.170;2022-10-31T07:41:47;13.43;;;9.55;;
63444;SDS011;49573;47.682;9.170;2022-10-31T07:44:33;12.48;;;8.93;;
63444;SDS011;49573;47.682;9.170;2022-10-31T07:47:19;26.00;;;10.48;;
63444;SDS011;49573;47.682;9.170;2022-10-31T07:50:06;16.00;;;9.98;;
63444;SDS011;49573;47.682;9.170;2022-10-31T07:53:01;20.92;;;10.93;;
63444;SDS011;49573;47.682;9.170;2022-10-31T07:55:48;13.27;;;9.07;;
63444;SDS011;49573;47.682;9.170;2022-10-31T07:58:34;12.10;;;9.30;;
63444;SDS011;49573;47.682;9.170;2022-10-31T08:01:20;12.25;;;8.90;;
63444;SDS011;49573;47.682;9.170;2022-10-31T08:04:06;23.70;;;9.30;;
63444;SDS011;49573;47.682;9.170;2022-10-31T08:06:53;18.83;;;9.98;;
63444;SDS011;49573;47.682;9.170;2022-10-31T08:09:40;12.40;;;9.20;;
63444;SDS011;49573;47.682;9.170;2022-10-31T08:12:26;13.07;;;8.93;;
63444;SDS011;49573;47.682;9.170;2022-10-31T08:15:12;12.77;;;10.00;;
63444;SDS011;49573;47.682;9.170;2022-10-31T08:17:58;13.17;;;10.50;;
63444;SDS011;49573;47.682;9.170;2022-10-31T08:20:45;15.35;;;10.40;;
63444;SDS011;49573;47.682;9.170;2022-10-31T08:23:31;16.75;;;11.23;;
63444;SDS011;49573;47.682;9.170;2022-10-31T08:26:18;13.38;;;9.68;;
63444;SDS011;49573;47.682;9.170;2022-10-31T08:29:04;29.40;;;10.07;;
63444;SDS011;49573;47.682;9.170;2022-10-31T08:31:50;15.30;;;10.02;;
63444;SDS011;49573;47.682;9.170;2022-10-31T08:34:36;14.07;;;9.70;;
63444;SDS011;49573;47.682;9.170;2022-10-31T08:37:22;27.42;;;11.30;;
63444;SDS011;49573;47.682;9.170;2022-10-31T08:40:09;20.48;;;9.73;;
63444;SDS011;49573;47.682;9.170;2022-10-31T08:42:58;15.32;;;9.95;;
63444;SDS011;49573;47.682;9.170;2022-10-31T08:45:47;19.40;;;10.50;;
63444;SDS011;49573;47.682;9.170;2022-10-31T08:48:34;18.25;;;9.95;;
63444;SDS011;49573;47.682;9.170;2022-10-31T08:51:20;24.40;;;11.00;;
63444;SDS011;49573;47.682;9.170;2022-10-31T08:54:06;26.13;;;10.20;;
63444;SDS011;49573;47.682;9.170;2022-10-31T08:56:53;17.73;;;10.75;;
63444;SDS011;49573;47.682;9.170;2022-10-31T08:59:41;24.80;;;10.52;;
63444;SDS011;49573;47.682;9.170;2022-10-31T09:02:27;16.35;;;10.50;;
63444;SDS011;49573;47.682;9.170;2022-10-31T09:05:13;20.20;;;10.55;;
63444;SDS011;49573;47.682;9.170;2022-10-31T09:08:00;17.98;;;10.32;;
63444;SDS011;49573;47.682;9.170;2022-10-31T09:10:48;15.70;;;9.85;;
63444;SDS011;49573;47.682;9.170;2022-10-31T09:13:34;13.83;;;9.90;;
63444;SDS011;49573;47.682;9.170;2022-10-31T09:16:22;24.13;;;10.82;;
63444;SDS011;49573;47.682;9.170;2022-10-31T09:19:08;26.17;;;11.00;;
63444;SDS011;49573;47.682;9.170;2022-10-31T09:21:54;21.88;;;11.20;;
63444;SDS011;49573;47.682;9.170;2022-10-31T09:24:41;15.18;;;11.23;;
63444;SDS011;49573;47.682;9.170;2022-10-31T09:27:27;19.70;;;11.55;;
63444;SDS011;49573;47.682;9.170;2022-10-31T09:30:13;17.17;;;11.90;;
63444;SDS011;49573;47.682;9.170;2022-10-31T09:33:01;18.53;;;11.80;;
63444;SDS011;49573;47.682;9.170;2022-10-31T09:35:48;21.80;;;12.40;;
63444;SDS011;49573;47.682;9.170;2022-10-31T09:38:34;29.80;;;12.52;;
63444;SDS011;49573;47.682;9.170;2022-10-31T09:41:23;42.30;;;13.48;;
63444;SDS011;49573;47.682;9.170;2022-10-31T09:44:17;26.52;;;12.88;;
63444;SDS011;49573;47.682;9.170;2022-10-31T09:47:09;20.75;;;12.40;;
63444;SDS011;49573;47.682;9.170;2022-10-31T09:50:11;23.98;;;13.93;;
63444;SDS011;49573;47.682;9.170;2022-10-31T09:53:00;23.02;;;12.75;;
63444;SDS011;49573;47.682;9.170;2022-10-31T09:55:49;37.63;;;13.52;;
63444;SDS011;49573;47.682;9.170;2022-10-31T09:58:39;22.65;;;13.85;;
63444;SDS011;49573;47.682;9.170;2022-10-31T10:01:39;18.23;;;13.70;;
63444;SDS011;49573;47.682;9.170;2022-10-31T10:04:37;17.95;;;12.63;;
63444;SDS011;49573;47.682;9.170;2022-10-31T10:07:32;19.00;;;12.95;;
63444;SDS011;49573;47.682;9.170;2022-10-31T10:10:27;23.23;;;15.52;;
63444;SDS011;49573;47.682;9.170;2022-10-31T10:13:27;19.77;;;14.32;;
63444;SDS011;49573;47.682;9.170;2022-10-31T10:16:30;19.88;;;13.13;;
63444;SDS011;49573;47.682;9.170;2022-10-31T10:19:30;23.30;;;14.60;;
63444;SDS011;49573;47.682;9.170;2022-10-31T10:22:31;19.10;;;14.23;;
63444;SDS011;49573;47.682;9.170;2022-10-31T10:25:26;18.05;;;13.52;;
63444;SDS011;49573;47.682;9.170;2022-10-31T10:28:20;45.17;;;16.35;;
63444;SDS011;49573;47.682;9.170;2022-10-31T10:31:10;26.10;;;15.02;;
63444;SDS011;49573;47.682;9.170;2022-10-31T10:34:01;32.67;;;15.60;;
63444;SDS011;49573;47.682;9.170;2022-10-31T10:36:56;28.85;;;15.50;;
63444;SDS011;49573;47.682;9.170;2022-10-31T10:39:48;23.25;;;14.95;;
63444;SDS011;49573;47.682;9.170;2022-10-31T10:42:38;28.55;;;15.65;;
63444;SDS011;49573;47.682;9.170;2022-10-31T10:45:43;28.48;;;15.70;;
63444;SDS011;49573;47.682;9.170;2022-10-31T10:48:55;22.70;;;15.02;;
63444;SDS011;49573;47.682;9.170;2022-10-31T10:51:47;19.70;;;14.63;;
63444;SDS011;49573;47.682;9.170;2022-10-31T10:54:48;22.67;;;14.15;;
63444;SDS011;49573;47.682;9.170;2022-10-31T10:57:50;24.00;;;16.17;;
63444;SDS011;49573;47.682;9.170;2022-10-31T11:00:41;29.25;;;16.15;;
63444;SDS011;49573;47.682;9.170;2022-10-31T11:03:28;23.08;;;15.77;;
63444;SDS011;49573;47.682;9.170;2022-10-31T11:06:18;27.05;;;17.30;;
63444;SDS011;49573;47.682;9.170;2022-10-31T11:09:10;32.80;;;18.48;;
63444;SDS011;49573;47.682;9.170;2022-10-31T11:11:58;25.58;;;16.38;;
63444;SDS011;49573;47.682;9.170;2022-10-31T11:14:45;26.70;;;16.27;;
63444;SDS011;49573;47.682;9.170;2022-10-31T11:17:36;26.80;;;17.27;;
63444;SDS011;49573;47.682;9.170;2022-10-31T11:20:26;24.52;;;17.23;;
63444;SDS011;49573;47.682;9.170;2022-10-31T11:23:17;28.98;;;19.05;;
63444;SDS011;49573;47.682;9.170;2022-10-31T11:26:16;29.95;;;18.08;;
63444;SDS011;49573;47.682;9.170;2022-10-31T11:29:10;27.58;;;16.70;;
63444;SDS011;49573;47.682;9.170;2022-10-31T11:31:59;27.30;;;17.65;;
63444;SDS011;49573;47.682;9.170;2022-10-31T11:34:46;28.33;;;16.98;;
63444;SDS011;49573;47.682;9.170;2022-10-31T11:37:35;29.08;;;17.50;;
63444;SDS011;49573;47.682;9.170;2022-10-31T11:40:28;29.17;;;18.15;;
63444;SDS011;49573;47.682;9.170;2022-10-31T11:43:15;26.30;;;16.90;;
63444;SDS011;49573;47.682;9.170;2022-10-31T11:46:09;27.25;;;17.65;;
63444;SDS011;49573;47.682;9.170;2022-10-31T11:48:56;24.95;;;16.73;;
63444;SDS011;49573;47.682;9.170;2022-10-31T11:51:43;28.33;;;17.83;;
63444;SDS011;49573;47.682;9.170;2022-10-31T11:54:39;26.88;;;18.13;;
63444;SDS011;49573;47.682;9.170;2022-10-31T11:57:28;23.42;;;16.30;;
63444;SDS011;49573;47.682;9.170;2022-10-31T12:00:20;26.23;;;16.25;;
63444;SDS011;49573;47.682;9.170;2022-10-31T12:03:13;29.02;;;18.17;;
63444;SDS011;49573;47.682;9.170;2022-10-31T12:06:10;25.13;;;16.17;;
63444;SDS011;49573;47.682;9.170;2022-10-31T12:08:59;24.80;;;17.45;;
63444;SDS011;49573;47.682;9.170;2022-10-31T12:11:48;25.83;;;17.33;;
63444;SDS011;49573;47.682;9.170;2022-10-31T12:14:51;27.42;;;17.33;;
63444;SDS011;49573;47.682;9.170;2022-10-31T12:17:47;24.40;;;17.95;;
63444;SDS011;49573;47.682;9.170;2022-10-31T12:20:41;26.75;;;17.10;;
63444;SDS011;49573;47.682;9.170;2022-10-31T12:23:42;25.02;;;16.35;;
63444;SDS011;49573;47.682;9.170;2022-10-31T12:26:35;26.80;;;18.13;;
63444;SDS011;49573;47.682;9.170;2022-10-31T12:29:30;25.13;;;17.35;;
63444;SDS011;49573;47.682;9.170;2022-10-31T12:32:30;25.35;;;17.25;;
63444;SDS011;49573;47.682;9.170;2022-10-31T12:35:30;23.20;;;16.60;;
63444;SDS011;49573;47.682;9.170;2022-10-31T12:38:35;27.92;;;15.20;;
63444;SDS011;49573;47.682;9.170;2022-10-31T12:41:34;16.80;;;13.63;;
63444;SDS011;49573;47.682;9.170;2022-10-31T12:44:34;17.52;;;13.07;;
63444;SDS011;49573;47.682;9.170;2022-10-31T12:47:43;18.67;;;13.25;;
63444;SDS011;49573;47.682;9.170;2022-10-31T12:50:44;17.27;;;12.95;;
63444;SDS011;49573;47.682;9.170;2022-10-31T12:53:42;14.63;;;11.23;;
63444;SDS011;49573;47.682;9.170;2022-10-31T12:56:42;16.80;;;12.27;;
63444;SDS011;49573;47.682;9.170;2022-10-31T12:59:37;14.73;;;11.50;;
63444;SDS011;49573;47.682;9.170;2022-10-31T13:02:29;13.45;;;11.40;;
63444;SDS011;49573;47.682;9.170;2022-10-31T13:05:22;12.27;;;11.00;;
63444;SDS011;49573;47.682;9.170;2022-10-31T13:08:14;15.05;;;11.65;;
63444;SDS011;49573;47.682;9.170;2022-10-31T13:11:07;12.48;;;10.40;;
63444;SDS011;49573;47.682;9.170;2022-10-31T13:14:01;13.73;;;10.90;;
63444;SDS011;49573;47.682;9.170;2022-10-31T13:16:52;14.02;;;11.27;;
63444;SDS011;49573;47.682;9.170;2022-10-31T13:19:41;14.30;;;10.05;;
63444;SDS011;49573;47.682;9.170;2022-10-31T13:22:30;15.52;;;10.57;;
63444;SDS011;49573;47.682;9.170;2022-10-31T13:25:22;14.32;;;10.55;;
63444;SDS011;49573;47.682;9.170;2022-10-31T13:31:20;12.00;;;10.70;;
63444;SDS011;49573;47.682;9.170;2022-10-31T13:34:09;11.15;;;10.05;;
63444;SDS011;49573;47.682;9.170;2022-10-31T13:37:15;12.05;;;9.75;;
63444;SDS011;49573;47.682;9.170;2022-10-31T13:40:12;11.38;;;10.15;;
63444;SDS011;49573;47.682;9.170;2022-10-31T13:43:06;14.35;;;11.20;;
63444;SDS011;49573;47.682;9.170;2022-10-31T13:46:00;12.57;;;10.82;;
63444;SDS011;49573;47.682;9.170;2022-10-31T13:48:47;16.17;;;11.93;;
63444;SDS011;49573;47.682;9.170;2022-10-31T13:51:33;17.98;;;12.77;;
63444;SDS011;49573;47.682;9.170;2022-10-31T13:54:21;16.77;;;13.73;;
63444;SDS011;49573;47.682;9.170;2022-10-31T13:57:13;16.27;;;13.10;;
63444;SDS011;49573;47.682;9.170;2022-10-31T14:00:04;20.63;;;14.93;;
63444;SDS011;49573;47.682;9.170;2022-10-31T14:02:55;19.38;;;13.75;;
63444;SDS011;49573;47.682;9.170;2022-10-31T14:05:42;24.02;;;16.52;;
63444;SDS011;49573;47.682;9.170;2022-10-31T14:08:39;19.17;;;14.85;;
63444;SDS011;49573;47.682;9.170;2022-10-31T14:11:32;20.70;;;14.07;;
63444;SDS011;49573;47.682;9.170;2022-10-31T14:14:18;18.88;;;15.07;;
63444;SDS011;49573;47.682;9.170;2022-10-31T14:17:12;18.98;;;14.43;;
63444;SDS011;49573;47.682;9.170;2022-10-31T14:23:31;21.90;;;15.25;;
63444;SDS011;49573;47.682;9.170;2022-10-31T14:26:33;17.67;;;13.95;;
63444;SDS011;49573;47.682;9.170;2022-10-31T14:29:25;24.83;;;15.15;;
63444;SDS011;49573;47.682;9.170;2022-10-31T14:32:16;20.52;;;15.27;;
63444;SDS011;49573;47.682;9.170;2022-10-31T14:35:09;21.02;;;15.18;;
63444;SDS011;49573;47.682;9.170;2022-10-31T14:38:05;22.23;;;15.25;;
63444;SDS011;49573;47.682;9.170;2022-10-31T14:47:36;21.52;;;16.05;;
63444;SDS011;49573;47.682;9.170;2022-10-31T14:50:32;21.33;;;15.80;;
63444;SDS011;49573;47.682;9.170;2022-10-31T14:53:35;21.77;;;16.10;;
63444;SDS011;49573;47.682;9.170;2022-10-31T14:56:27;19.45;;;14.43;;
63444;SDS011;49573;47.682;9.170;2022-10-31T14:59:15;22.15;;;15.88;;
63444;SDS011;49573;47.682;9.170;2022-10-31T15:02:09;21.85;;;15.95;;
63444;SDS011;49573;47.682;9.170;2022-10-31T15:04:58;21.65;;;15.15;;
63444;SDS011;49573;47.682;9.170;2022-10-31T15:07:50;20.65;;;14.75;;
63444;SDS011;49573;47.682;9.170;2022-10-31T15:10:38;21.73;;;15.32;;
63444;SDS011;49573;47.682;9.170;2022-10-31T15:13:31;22.48;;;15.82;;
63444;SDS011;49573;47.682;9.170;2022-10-31T15:16:18;21.83;;;14.90;;
63444;SDS011;49573;47.682;9.170;2022-10-31T15:19:06;27.05;;;16.50;;
63444;SDS011;49573;47.682;9.170;2022-10-31T15:21:56;25.27;;;16.05;;
63444;SDS011;49573;47.682;9.170;2022-10-31T15:24:42;20.63;;;14.75;;
63444;SDS011;49573;47.682;9.170;2022-10-31T15:27:31;22.95;;;15.60;;
63444;SDS011;49573;47.682;9.170;2022-10-31T15:30:19;22.02;;;14.80;;
63444;SDS011;49573;47.682;9.170;2022-10-31T15:33:16;21.55;;;14.88;;
63444;SDS011;49573;47.682;9.170;2022-10-31T15:36:06;17.90;;;13.50;;
63444;SDS011;49573;47.682;9.170;2022-10-31T15:39:03;18.25;;;12.88;;
63444;SDS011;49573;47.682;9.170;2022-10-31T15:41:50;17.48;;;13.48;;
63444;SDS011;49573;47.682;9.170;2022-10-31T15:44:39;18.92;;;12.80;;
63444;SDS011;49573;47.682;9.170;2022-10-31T15:47:28;15.60;;;12.10;;
63444;SDS011;49573;47.682;9.170;2022-10-31T15:50:19;16.00;;;11.98;;
63444;SDS011;49573;47.682;9.170;2022-10-31T15:53:13;13.23;;;10.50;;
63444;SDS011;49573;47.682;9.170;2022-10-31T15:56:02;14.70;;;10.88;;
63444;SDS011;49573;47.682;9.170;2022-10-31T15:58:51;13.45;;;10.63;;
63444;SDS011;49573;47.682;9.170;2022-10-31T16:01:40;13.02;;;9.35;;
63444;SDS011;49573;47.682;9.170;2022-10-31T16:04:48;12.27;;;9.60;;
63444;SDS011;49573;47.682;9.170;2022-10-31T16:07:36;15.52;;;11.15;;
63444;SDS011;49573;47.682;9.170;2022-10-31T16:10:23;12.93;;;10.00;;
63444;SDS011;49573;47.682;9.170;2022-10-31T16:13:11;15.38;;;11.02;;
63444;SDS011;49573;47.682;9.170;2022-10-31T16:15:57;13.57;;;10.60;;
63444;SDS011;49573;47.682;9.170;2022-10-31T16:18:47;14.45;;;11.57;;
63444;SDS011;49573;47.682;9.170;2022-10-31T16:21:35;20.50;;;13.40;;
63444;SDS011;49573;47.682;9.170;2022-10-31T16:24:24;14.13;;;11.23;;
63444;SDS011;49573;47.682;9.170;2022-10-31T16:27:17;14.52;;;11.65;;
63444;SDS011;49573;47.682;9.170;2022-10-31T16:33:21;14.38;;;11.43;;
63444;SDS011;49573;47.682;9.170;2022-10-31T16:36:31;14.90;;;10.50;;
63444;SDS011;49573;47.682;9.170;2022-10-31T16:39:18;13.52;;;10.40;;
63444;SDS011;49573;47.682;9.170;2022-10-31T16:42:04;13.95;;;10.40;;
63444;SDS011;49573;47.682;9.170;2022-10-31T16:44:53;14.85;;;10.60;;
63444;SDS011;49573;47.682;9.170;2022-10-31T16:47:39;19.90;;;10.97;;
63444;SDS011;49573;47.682;9.170;2022-10-31T16:50:26;19.92;;;12.05;;
63444;SDS011;49573;47.682;9.170;2022-10-31T16:53:14;15.80;;;11.95;;
63444;SDS011;49573;47.682;9.170;2022-10-31T16:56:01;22.85;;;11.85;;
63444;SDS011;49573;47.682;9.170;2022-10-31T16:58:49;14.98;;;11.68;;
63444;SDS011;49573;47.682;9.170;2022-10-31T17:01:35;16.70;;;12.93;;
63444;SDS011;49573;47.682;9.170;2022-10-31T17:04:21;26.40;;;12.37;;
63444;SDS011;49573;47.682;9.170;2022-10-31T17:07:07;17.15;;;11.48;;